createdAt,value
2022-11-28T00:00:19.620Z,81.34
2022-11-28T00:03:12.067Z,81.19
2022-11-28T00:06:08.347Z,81.04
2022-11-28T00:09:02.460Z,81.06
2022-11-28T00:11:56.900Z,81.29
2022-11-28T00:14:49.537Z,81.37
2022-11-28T00:17:41.882Z,81.45
2022-11-28T00:20:35.329Z,81.69
2022-11-28T00:23:28.495Z,81.64
2022-11-28T00:26:23.224Z,81.67
2022-11-28T00:29:16.075Z,81.68
2022-11-28T00:32:10.280Z,81.61
2022-11-28T00:35:02.870Z,81.48
2022-11-28T00:37:56.490Z,81.29
2022-11-28T00:40:49.055Z,81.15
2022-11-28T00:43:41.786Z,80.94
2022-11-28T00:46:34.457Z,80.59
2022-11-28T00:49:26.912Z,80.42
2022-11-28T00:52:20.078Z,80.11
2022-11-28T00:55:12.941Z,79.87
2022-11-28T00:58:05.536Z,79.62
2022-11-28T01:00:57.980Z,79.45
2022-11-28T01:03:51.603Z,79.23
2022-11-28T01:06:46.033Z,79.06
2022-11-28T01:09:38.913Z,78.96
2022-11-28T01:12:31.182Z,79.02
2022-11-28T01:15:23.577Z,79.13
2022-11-28T01:18:15.904Z,79.38
2022-11-28T01:21:09.191Z,79.53
2022-11-28T01:24:01.553Z,79.76
2022-11-28T01:26:53.786Z,79.86
2022-11-28T01:29:45.980Z,79.95
2022-11-28T01:32:38.303Z,79.93
2022-11-28T01:35:33.269Z,80.03
2022-11-28T01:38:26.584Z,80.20
2022-11-28T01:41:21.268Z,80.36
2022-11-28T01:44:44.447Z,80.47
2022-11-28T01:47:37.309Z,80.60
2022-11-28T01:50:31.160Z,80.62
2022-11-28T01:53:24.279Z,80.62
2022-11-28T01:56:20.505Z,80.60
2022-11-28T01:59:15.187Z,80.56
2022-11-28T02:02:15.041Z,80.59
2022-11-28T02:05:09.967Z,80.55
2022-11-28T02:08:02.234Z,80.59
2022-11-28T02:11:11.360Z,80.62
2022-11-28T02:14:15.751Z,80.76
2022-11-28T02:17:18.245Z,80.74
2022-11-28T02:20:42.749Z,80.74
2022-11-28T02:23:58.334Z,80.72
2022-11-28T02:27:49.069Z,80.93
2022-11-28T02:30:48.854Z,81.02
2022-11-28T02:33:48.735Z,81.07
2022-11-28T02:36:52.283Z,80.98
2022-11-28T02:39:56.728Z,80.92
2022-11-28T02:43:01.091Z,80.88
2022-11-28T02:46:01.446Z,80.80
2022-11-28T02:49:00.763Z,80.63
2022-11-28T02:52:01.149Z,80.55
2022-11-28T02:54:52.530Z,80.44
2022-11-28T02:57:49.275Z,80.43
2022-11-28T03:00:44.283Z,80.44
2022-11-28T03:04:04.681Z,80.27
2022-11-28T03:07:11.613Z,80.03
2022-11-28T03:10:20.945Z,79.86
2022-11-28T03:13:23.563Z,79.74
2022-11-28T03:16:26.545Z,79.56
2022-11-28T03:19:27.970Z,79.50
2022-11-28T03:22:29.875Z,79.35
2022-11-28T03:25:30.604Z,79.20
2022-11-28T03:28:30.022Z,79.09
2022-11-28T03:31:27.521Z,79.10
2022-11-28T03:34:24.782Z,78.98
2022-11-28T03:37:21.790Z,78.83
2022-11-28T03:40:20.623Z,78.83
2022-11-28T03:43:18.076Z,78.80
2022-11-28T03:46:13.868Z,78.82
2022-11-28T03:49:09.916Z,78.81
2022-11-28T03:52:05.125Z,78.87
2022-11-28T03:54:59.985Z,78.88
2022-11-28T03:57:59.912Z,78.91
2022-11-28T04:01:10.307Z,79.07
2022-11-28T04:04:18.068Z,79.18
2022-11-28T04:07:25.113Z,79.24
2022-11-28T04:10:22.665Z,79.20
2022-11-28T04:13:22.378Z,79.32
2022-11-28T04:16:21.289Z,79.45
2022-11-28T04:19:18.065Z,79.56
2022-11-28T04:22:16.005Z,79.63
2022-11-28T04:25:12.482Z,79.92
2022-11-28T04:28:10.537Z,80.39
2022-11-28T04:31:06.071Z,80.53
2022-11-28T04:34:04.284Z,80.62
2022-11-28T04:36:59.253Z,80.68
2022-11-28T04:39:53.996Z,80.96
2022-11-28T04:42:53.043Z,81.20
2022-11-28T04:45:49.318Z,81.50
2022-11-28T04:48:41.713Z,81.59
2022-11-28T04:51:40.889Z,81.72
2022-11-28T04:54:39.626Z,81.78
2022-11-28T04:57:36.847Z,82.02
2022-11-28T05:00:29.663Z,82.16
2022-11-28T05:03:22.758Z,82.17
2022-11-28T05:06:27.294Z,82.41
2022-11-28T05:09:19.350Z,82.43
2022-11-28T05:12:11.753Z,82.47
2022-11-28T05:15:04.136Z,82.41
2022-11-28T05:17:58.607Z,82.58
2022-11-28T05:20:50.931Z,82.68
2022-11-28T05:23:45.028Z,82.81
2022-11-28T05:26:38.219Z,82.92
2022-11-28T05:29:32.652Z,82.99
2022-11-28T05:32:25.095Z,83.08
2022-11-28T05:35:17.352Z,83.12
2022-11-28T05:38:13.542Z,83.08
2022-11-28T05:41:07.361Z,83.06
2022-11-28T05:44:05.413Z,83.10
2022-11-28T05:46:57.979Z,83.06
2022-11-28T05:49:50.958Z,83.18
2022-11-28T05:52:43.581Z,83.28
2022-11-28T05:55:40.214Z,83.37
2022-11-28T05:58:37.714Z,83.57
2022-11-28T06:01:39.675Z,83.68
2022-11-28T06:04:32.433Z,83.72
2022-11-28T06:07:25.055Z,83.75
2022-11-28T06:10:22.832Z,83.99
2022-11-28T06:13:15.645Z,84.18
2022-11-28T06:16:12.343Z,84.28
2022-11-28T06:19:06.745Z,84.38
2022-11-28T06:21:59.627Z,84.55
2022-11-28T06:24:51.993Z,84.71
2022-11-28T06:27:47.342Z,85.03
2022-11-28T06:30:39.864Z,85.05
2022-11-28T06:33:32.430Z,85.00
2022-11-28T06:36:25.247Z,85.07
2022-11-28T06:39:18.955Z,85.25
2022-11-28T06:42:11.268Z,85.42
2022-11-28T06:45:04.661Z,85.54
2022-11-28T06:47:57.166Z,85.53
2022-11-28T06:50:50.400Z,85.64
2022-11-28T06:53:43.121Z,85.78
2022-11-28T06:56:35.779Z,85.92
2022-11-28T06:59:28.025Z,85.82
2022-11-28T07:02:20.402Z,85.86
2022-11-28T07:05:13.113Z,86.12
2022-11-28T07:08:07.740Z,86.17
2022-11-28T07:11:08.199Z,86.29
2022-11-28T07:13:59.360Z,86.44
2022-11-28T07:16:51.727Z,86.53
2022-11-28T07:19:44.424Z,86.58
2022-11-28T07:22:39.454Z,86.65
2022-11-28T07:25:34.621Z,86.84
2022-11-28T07:28:27.047Z,86.84
2022-11-28T07:31:21.260Z,86.92
2022-11-28T07:34:14.200Z,86.95
2022-11-28T07:37:06.369Z,86.98
2022-11-28T07:39:58.687Z,86.98
2022-11-28T07:42:51.241Z,87.00
2022-11-28T07:45:59.965Z,87.11
2022-11-28T07:48:52.898Z,87.25
2022-11-28T07:51:45.317Z,87.22
2022-11-28T07:54:37.871Z,87.23
2022-11-28T07:57:30.997Z,87.28
2022-11-28T08:00:25.351Z,87.15
2022-11-28T08:03:17.226Z,87.21
2022-11-28T08:06:12.501Z,87.27
2022-11-28T08:09:05.242Z,87.30
2022-11-28T08:11:57.820Z,87.39
2022-11-28T08:14:50.416Z,87.63
2022-11-28T08:17:44.107Z,87.94
2022-11-28T08:20:38.995Z,88.01
2022-11-28T08:23:31.292Z,87.98
2022-11-28T08:26:29.062Z,88.14
2022-11-28T08:29:22.882Z,88.13
2022-11-28T08:32:15.563Z,88.11
2022-11-28T08:35:08.694Z,88.21
2022-11-28T08:38:02.756Z,88.37
2022-11-28T08:41:03.816Z,88.80
2022-11-28T08:43:56.445Z,89.13
2022-11-28T08:46:48.854Z,89.21
2022-11-28T08:49:41.524Z,89.33
2022-11-28T08:52:34.366Z,89.48
2022-11-28T08:55:32.093Z,89.38
2022-11-28T08:58:25.679Z,89.40
2022-11-28T09:01:23.044Z,89.44
2022-11-28T09:04:15.286Z,89.36
2022-11-28T09:07:08.163Z,89.32
2022-11-28T09:10:00.750Z,89.20
2022-11-28T09:12:53.437Z,89.05
2022-11-28T09:15:51.211Z,88.97
2022-11-28T09:18:45.258Z,88.89
2022-11-28T09:21:38.915Z,88.81
2022-11-28T09:24:32.238Z,88.80
2022-11-28T09:27:24.530Z,88.65
2022-11-28T09:30:18.236Z,88.60
2022-11-28T09:33:12.519Z,88.64
2022-11-28T09:36:09.723Z,88.70
2022-11-28T09:39:02.622Z,88.81
2022-11-28T09:42:09.400Z,89.02
2022-11-28T09:45:06.721Z,89.10
2022-11-28T09:48:04.157Z,89.31
2022-11-28T09:51:03.500Z,89.51
2022-11-28T09:54:08.258Z,89.77
2022-11-28T09:57:03.180Z,89.92
2022-11-28T09:59:55.813Z,90.01
2022-11-28T10:02:56.623Z,90.13
2022-11-28T10:06:18.324Z,90.24
2022-11-28T10:09:42.569Z,90.34
2022-11-28T10:12:49.789Z,90.57
2022-11-28T10:15:54.870Z,90.31
2022-11-28T10:18:52.322Z,90.14
2022-11-28T10:21:49.062Z,89.89
2022-11-28T10:24:46.202Z,89.59
2022-11-28T10:27:39.260Z,89.44
2022-11-28T10:30:35.236Z,89.47
2022-11-28T10:33:30.497Z,89.51
2022-11-28T10:36:29.258Z,89.74
2022-11-28T10:39:21.472Z,89.92
2022-11-28T10:42:20.831Z,90.07
2022-11-28T10:45:24.760Z,90.02
2022-11-28T10:48:39.513Z,89.88
2022-11-28T10:51:44.563Z,89.92
2022-11-28T10:54:57.437Z,89.95
2022-11-28T10:57:57.691Z,90.02
2022-11-28T11:00:50.966Z,90.12
2022-11-28T11:03:43.548Z,90.01
2022-11-28T11:06:41.801Z,89.99
2022-11-28T11:09:40.314Z,89.97
2022-11-28T11:12:35.745Z,89.83
2022-11-28T11:15:33.914Z,89.80
2022-11-28T11:18:28.845Z,89.85
2022-11-28T11:21:23.180Z,89.80
2022-11-28T11:24:19.388Z,89.83
2022-11-28T11:27:22.631Z,89.91
2022-11-28T11:30:28.600Z,90.06
2022-11-28T11:33:21.527Z,90.01
2022-11-28T11:36:26.308Z,89.99
2022-11-28T11:39:25.765Z,89.95
2022-11-28T11:42:24.115Z,89.81
2022-11-28T11:45:30.159Z,89.37
2022-11-28T11:48:38.070Z,88.80
2022-11-28T11:51:38.018Z,88.33
2022-11-28T11:54:31.792Z,88.16
2022-11-28T11:57:33.164Z,88.19
2022-11-28T12:00:33.660Z,88.04
2022-11-28T12:03:32.556Z,87.98
2022-11-28T12:06:29.658Z,88.00
2022-11-28T12:09:28.105Z,88.11
2022-11-28T12:12:23.954Z,88.23
2022-11-28T12:15:27.480Z,88.41
2022-11-28T12:18:29.403Z,88.70
2022-11-28T12:21:31.184Z,88.83
2022-11-28T12:24:27.951Z,88.69
2022-11-28T12:27:34.336Z,88.71
2022-11-28T12:30:41.907Z,88.59
2022-11-28T12:33:46.874Z,88.76
2022-11-28T12:36:46.119Z,88.82
2022-11-28T12:39:52.113Z,88.57
2022-11-28T12:42:58.837Z,88.44
2022-11-28T12:46:00.986Z,88.41
2022-11-28T12:49:10.213Z,88.04
2022-11-28T12:52:14.518Z,87.70
2022-11-28T12:55:22.646Z,87.84
2022-11-28T12:58:21.505Z,87.97
2022-11-28T13:01:32.212Z,87.98
2022-11-28T13:04:45.441Z,88.11
2022-11-28T13:07:50.194Z,88.22
2022-11-28T13:10:47.128Z,88.36
2022-11-28T13:13:45.817Z,88.34
2022-11-28T13:16:47.030Z,88.02
2022-11-28T13:19:49.744Z,87.85
2022-11-28T13:22:54.698Z,87.55
2022-11-28T13:25:53.178Z,87.05
2022-11-28T13:28:53.818Z,86.73
2022-11-28T13:31:54.986Z,86.29
2022-11-28T13:34:50.701Z,86.09
2022-11-28T13:41:08.994Z,85.69
2022-11-28T13:44:17.760Z,85.66
2022-11-28T13:47:31.097Z,85.22
2022-11-28T13:50:42.222Z,85.12
2022-11-28T13:53:34.015Z,85.33
2022-11-28T13:56:30.209Z,85.53
2022-11-28T13:59:25.608Z,85.51
2022-11-28T14:02:25.438Z,85.16
2022-11-28T14:05:35.557Z,84.71
2022-11-28T14:08:30.115Z,84.10
2022-11-28T14:11:49.766Z,84.03
2022-11-28T14:15:00.010Z,84.03
2022-11-28T14:18:31.542Z,83.86
2022-11-28T14:21:34.159Z,83.71
2022-11-28T14:24:53.267Z,83.17
2022-11-28T14:27:54.799Z,82.88
2022-11-28T14:30:49.896Z,82.92
2022-11-28T14:33:45.629Z,82.86
2022-11-28T14:36:42.193Z,83.08
2022-11-28T14:39:37.923Z,83.28
2022-11-28T14:45:53.255Z,83.14
2022-11-28T14:49:05.414Z,83.04
2022-11-28T14:52:38.835Z,82.92
2022-11-28T14:55:32.464Z,82.70
2022-11-28T14:58:24.866Z,82.72
2022-11-28T15:01:26.345Z,82.62
2022-11-28T15:04:50.984Z,82.63
2022-11-28T15:08:01.268Z,82.89
2022-11-28T15:10:58.727Z,83.16
2022-11-28T15:14:06.105Z,83.31
2022-11-28T15:17:03.217Z,83.70
2022-11-28T15:19:56.080Z,83.99
2022-11-28T15:22:47.986Z,84.18
2022-11-28T15:25:40.423Z,84.39
2022-11-28T15:28:35.737Z,84.64
2022-11-28T15:31:28.716Z,84.82
2022-11-28T15:34:30.454Z,84.99
2022-11-28T15:37:24.736Z,85.36
2022-11-28T15:40:21.811Z,85.60
2022-11-28T15:43:17.585Z,85.83
2022-11-28T15:46:15.586Z,86.13
2022-11-28T15:49:23.432Z,86.33
2022-11-28T15:52:19.933Z,86.52
2022-11-28T15:55:20.432Z,86.63
2022-11-28T15:58:21.859Z,86.92
2022-11-28T16:01:18.850Z,87.02
2022-11-28T16:04:17.243Z,87.34
2022-11-28T16:07:16.772Z,87.41
2022-11-28T16:10:21.567Z,87.68
2022-11-28T16:13:20.118Z,87.81
2022-11-28T16:16:16.416Z,88.04
2022-11-28T16:19:26.120Z,88.22
2022-11-28T16:22:23.236Z,88.44
2022-11-28T16:25:22.205Z,88.71
2022-11-28T16:28:32.617Z,88.86
2022-11-28T16:31:25.165Z,89.08
2022-11-28T16:34:17.642Z,89.25
2022-11-28T16:37:13.683Z,89.39
2022-11-28T16:40:17.330Z,89.60
2022-11-28T16:43:22.548Z,89.71
2022-11-28T16:46:25.660Z,89.90
2022-11-28T16:49:35.950Z,90.08
2022-11-28T16:52:45.899Z,90.20
2022-11-28T16:55:44.892Z,90.31
2022-11-28T16:58:36.816Z,90.40
2022-11-28T17:01:30.394Z,90.47
2022-11-28T17:04:27.357Z,90.49
2022-11-28T17:07:22.026Z,90.63
2022-11-28T17:10:16.615Z,90.75
2022-11-28T17:13:10.552Z,90.80
2022-11-28T17:16:02.696Z,90.95
2022-11-28T17:18:55.251Z,91.08
2022-11-28T17:21:51.898Z,91.16
2022-11-28T17:24:44.693Z,91.18
2022-11-28T17:27:36.874Z,91.29
2022-11-28T17:30:29.217Z,91.52
2022-11-28T17:33:23.212Z,91.70
2022-11-28T17:36:15.919Z,91.66
2022-11-28T17:39:08.293Z,91.66
2022-11-28T17:42:02.492Z,91.86
2022-11-28T17:44:54.915Z,91.99
2022-11-28T17:47:48.538Z,91.99
2022-11-28T17:50:41.595Z,92.02
2022-11-28T17:53:37.966Z,92.19
2022-11-28T17:56:31.682Z,92.21
2022-11-28T17:59:27.177Z,92.21
2022-11-28T18:02:19.272Z,92.26
2022-11-28T18:05:12.206Z,92.37
2022-11-28T18:08:05.271Z,92.54
2022-11-28T18:11:08.932Z,92.76
2022-11-28T18:13:59.833Z,92.93
2022-11-28T18:16:52.124Z,92.87
2022-11-28T18:19:44.750Z,92.90
2022-11-28T18:22:37.269Z,92.96
2022-11-28T18:25:30.618Z,92.93
2022-11-28T18:28:23.238Z,92.85
2022-11-28T18:31:18.085Z,92.92
2022-11-28T18:34:10.929Z,92.93
2022-11-28T18:37:05.296Z,93.15
2022-11-28T18:39:57.137Z,93.37
2022-11-28T18:42:49.340Z,93.41
2022-11-28T18:45:41.809Z,93.48
2022-11-28T18:48:34.156Z,93.48
2022-11-28T18:51:29.822Z,93.57
2022-11-28T18:54:22.239Z,93.53
2022-11-28T18:57:14.635Z,93.39
2022-11-28T19:00:08.861Z,93.29
2022-11-28T19:03:00.869Z,93.36
2022-11-28T19:05:54.103Z,93.51
2022-11-28T19:08:46.861Z,93.63
2022-11-28T19:11:39.506Z,93.54
2022-11-28T19:14:32.850Z,93.54
2022-11-28T19:17:25.223Z,93.71
2022-11-28T19:20:17.618Z,93.70
2022-11-28T19:23:10.096Z,93.64
2022-11-28T19:26:05.342Z,93.58
2022-11-28T19:28:59.949Z,93.47
2022-11-28T19:31:52.122Z,93.36
2022-11-28T19:34:44.357Z,93.32
2022-11-28T19:37:38.621Z,93.32
2022-11-28T19:40:33.965Z,93.28
2022-11-28T19:43:26.472Z,93.37
2022-11-28T19:46:18.712Z,93.44
2022-11-28T19:49:16.855Z,93.38
2022-11-28T19:52:09.301Z,93.42
2022-11-28T19:55:01.825Z,93.52
2022-11-28T19:57:54.175Z,93.53
2022-11-28T20:00:46.936Z,93.59
2022-11-28T20:03:40.734Z,93.66
2022-11-28T20:06:34.606Z,93.79
2022-11-28T20:09:27.784Z,93.84
2022-11-28T20:12:19.846Z,93.97
2022-11-28T20:15:18.035Z,93.92
2022-11-28T20:18:11.762Z,94.06
2022-11-28T20:21:10.167Z,94.11
2022-11-28T20:24:05.311Z,94.21
2022-11-28T20:26:59.794Z,94.23
2022-11-28T20:29:52.364Z,94.20
2022-11-28T20:32:44.513Z,94.32
2022-11-28T20:35:36.571Z,94.31
2022-11-28T20:38:30.696Z,94.45
2022-11-28T20:41:25.098Z,94.49
2022-11-28T20:44:17.794Z,94.53
2022-11-28T20:47:11.808Z,94.59
2022-11-28T20:50:03.919Z,94.66
2022-11-28T20:52:55.974Z,94.82
2022-11-28T20:55:48.086Z,94.90
2022-11-28T20:58:40.393Z,94.98
2022-11-28T21:01:34.455Z,95.07
2022-11-28T21:04:26.942Z,95.08
2022-11-28T21:07:19.597Z,95.30
2022-11-28T21:10:12.747Z,95.36
2022-11-28T21:13:05.360Z,95.36
2022-11-28T21:15:58.675Z,95.35
2022-11-28T21:18:51.290Z,95.34
2022-11-28T21:21:44.210Z,95.30
2022-11-28T21:24:36.263Z,95.32
2022-11-28T21:27:28.432Z,95.33
2022-11-28T21:30:20.947Z,95.33
2022-11-28T21:33:14.883Z,95.31
2022-11-28T21:36:08.151Z,95.32
2022-11-28T21:39:01.871Z,95.39
2022-11-28T21:41:53.620Z,95.36
2022-11-28T21:44:45.813Z,95.44
2022-11-28T21:47:38.082Z,95.43
2022-11-28T21:50:30.562Z,95.40
2022-11-28T21:53:23.015Z,95.40
2022-11-28T21:56:15.321Z,95.48
2022-11-28T21:59:08.278Z,95.55
2022-11-28T22:02:00.545Z,95.53
2022-11-28T22:04:52.874Z,95.56
2022-11-28T22:07:45.066Z,95.58
2022-11-28T22:10:38.303Z,95.65
2022-11-28T22:13:32.231Z,95.76
2022-11-28T22:16:26.153Z,95.89
2022-11-28T22:19:18.476Z,95.88
2022-11-28T22:22:10.762Z,96.09
2022-11-28T22:25:04.064Z,96.16
2022-11-28T22:27:56.274Z,96.29
2022-11-28T22:30:48.808Z,96.38
2022-11-28T22:33:42.850Z,96.50
2022-11-28T22:36:34.937Z,96.74
2022-11-28T22:39:28.837Z,96.97
2022-11-28T22:42:20.983Z,97.25
2022-11-28T22:45:13.655Z,97.56
2022-11-28T22:48:06.486Z,97.77
2022-11-28T22:50:58.623Z,97.96
2022-11-28T22:53:53.338Z,98.02
2022-11-28T22:56:45.459Z,98.25
2022-11-28T22:59:38.851Z,98.52
2022-11-28T23:02:31.384Z,98.56
2022-11-28T23:05:23.730Z,98.59
2022-11-28T23:08:15.912Z,98.52
2022-11-28T23:11:09.795Z,98.54
2022-11-28T23:14:03.197Z,98.44
2022-11-28T23:16:55.346Z,98.43
2022-11-28T23:19:48.297Z,98.53
2022-11-28T23:22:40.504Z,98.51
2022-11-28T23:25:33.329Z,98.61
2022-11-28T23:28:25.647Z,98.73
2022-11-28T23:31:20.463Z,98.77
2022-11-28T23:34:13.409Z,98.87
2022-11-28T23:37:05.893Z,98.98
2022-11-28T23:39:58.071Z,98.87
2022-11-28T23:42:50.240Z,98.84
2022-11-28T23:45:42.480Z,98.81
2022-11-28T23:48:35.148Z,98.82
2022-11-28T23:51:28.645Z,98.80
2022-11-28T23:54:20.883Z,98.83
2022-11-28T23:57:13.206Z,98.91
